Terminal Aerodrome Forecast
Issued by NWS

Current Version | Previous Version | Graphics & Text | Print | Product List | Glossary On
Versions: 1 2 3 4 5 6 7 8 9 10 11 12 13 14 15 16
000
FTUS41 KILN 262200 AAA
TAFLCK
TAF AMD
KLCK 262223Z 2622/2718 32010KT P6SM OVC015
     FM262300 32010KT P6SM OVC022
     FM270200 31006KT P6SM BKN035
     FM270500 33006KT P6SM SCT035
     FM271100 33008KT P6SM BKN025
     FM271300 34010KT P6SM VCSH BKN035
     FM271700 34012G22KT P6SM VCSH BKN035=

USA.gov is the U.S. government's official web portal to all federal, state and local government web resources and services.